sensor_id;sensor_type;location;lat;lon;timestamp;pressure;altitude;pressure_sealevel;temperature;humidity
12247;BME280;6186;52.022;4.692;2023-03-14T00:02:16;98919.25;;;12.28;92.25
12247;BME280;6186;52.022;4.692;2023-03-14T00:04:41;98908.50;;;12.32;92.38
12247;BME280;6186;52.022;4.692;2023-03-14T00:07:07;98913.88;;;12.30;92.32
12247;BME280;6186;52.022;4.692;2023-03-14T00:09:32;98917.56;;;12.27;92.53
12247;BME280;6186;52.022;4.692;2023-03-14T00:11:58;98925.56;;;12.26;92.58
12247;BME280;6186;52.022;4.692;2023-03-14T00:14:23;98918.78;;;12.22;92.37
12247;BME280;6186;52.022;4.692;2023-03-14T00:16:49;98915.78;;;12.14;92.82
12247;BME280;6186;52.022;4.692;2023-03-14T00:19:14;98909.75;;;12.12;92.89
12247;BME280;6186;52.022;4.692;2023-03-14T00:21:40;98910.28;;;12.17;92.79
12247;BME280;6186;52.022;4.692;2023-03-14T00:24:06;98928.84;;;12.15;92.80
12247;BME280;6186;52.022;4.692;2023-03-14T00:26:31;98922.94;;;12.12;92.96
12247;BME280;6186;52.022;4.692;2023-03-14T00:28:57;98929.22;;;12.09;93.17
12247;BME280;6186;52.022;4.692;2023-03-14T00:31:23;98917.09;;;12.07;93.08
12247;BME280;6186;52.022;4.692;2023-03-14T00:33:48;98910.13;;;12.06;93.25
12247;BME280;6186;52.022;4.692;2023-03-14T00:36:15;98923.50;;;12.03;93.26
12247;BME280;6186;52.022;4.692;2023-03-14T00:38:42;98930.75;;;11.99;93.47
12247;BME280;6186;52.022;4.692;2023-03-14T00:41:14;98928.41;;;11.95;93.49
12247;BME280;6186;52.022;4.692;2023-03-14T00:43:39;98933.00;;;11.91;93.61
12247;BME280;6186;52.022;4.692;2023-03-14T00:46:05;98924.53;;;11.86;93.62
12247;BME280;6186;52.022;4.692;2023-03-14T00:48:30;98932.34;;;11.88;93.93
12247;BME280;6186;52.022;4.692;2023-03-14T00:50:56;98948.28;;;11.86;93.79
12247;BME280;6186;52.022;4.692;2023-03-14T00:53:21;98949.28;;;11.84;94.20
12247;BME280;6186;52.022;4.692;2023-03-14T00:55:48;98943.63;;;11.76;94.26
12247;BME280;6186;52.022;4.692;2023-03-14T00:58:15;98946.25;;;11.76;94.64
12247;BME280;6186;52.022;4.692;2023-03-14T01:00:41;98947.88;;;11.78;94.49
12247;BME280;6186;52.022;4.692;2023-03-14T01:03:08;98949.66;;;11.78;94.77
12247;BME280;6186;52.022;4.692;2023-03-14T01:05:34;98940.13;;;11.75;95.06
12247;BME280;6186;52.022;4.692;2023-03-14T01:07:59;98944.94;;;11.69;95.62
12247;BME280;6186;52.022;4.692;2023-03-14T01:10:25;98930.16;;;11.66;95.62
12247;BME280;6186;52.022;4.692;2023-03-14T01:12:51;98930.81;;;11.70;95.71
12247;BME280;6186;52.022;4.692;2023-03-14T01:15:17;98925.91;;;11.64;96.03
12247;BME280;6186;52.022;4.692;2023-03-14T01:17:42;98936.44;;;11.64;96.02
12247;BME280;6186;52.022;4.692;2023-03-14T01:20:10;98932.00;;;11.64;95.91
12247;BME280;6186;52.022;4.692;2023-03-14T01:22:36;98927.78;;;11.62;96.16
12247;BME280;6186;52.022;4.692;2023-03-14T01:25:04;98935.69;;;11.62;96.50
12247;BME280;6186;52.022;4.692;2023-03-14T01:27:29;98929.75;;;11.58;96.35
12247;BME280;6186;52.022;4.692;2023-03-14T01:29:54;98935.09;;;11.57;96.74
12247;BME280;6186;52.022;4.692;2023-03-14T01:32:20;98939.59;;;11.55;96.75
12247;BME280;6186;52.022;4.692;2023-03-14T01:34:45;98936.22;;;11.53;96.87
12247;BME280;6186;52.022;4.692;2023-03-14T01:37:10;98945.81;;;11.54;97.37
12247;BME280;6186;52.022;4.692;2023-03-14T01:39:37;98929.50;;;11.47;97.49
12247;BME280;6186;52.022;4.692;2023-03-14T01:42:03;98935.44;;;11.51;97.71
12247;BME280;6186;52.022;4.692;2023-03-14T01:44:28;98926.81;;;11.49;97.57
12247;BME280;6186;52.022;4.692;2023-03-14T01:46:53;98928.69;;;11.47;97.81
12247;BME280;6186;52.022;4.692;2023-03-14T01:53:09;98926.06;;;11.47;98.45
12247;BME280;6186;52.022;4.692;2023-03-14T01:55:10;98920.78;;;11.47;98.19
12247;BME280;6186;52.022;4.692;2023-03-14T01:57:40;98908.53;;;11.46;98.75
12247;BME280;6186;52.022;4.692;2023-03-14T02:00:13;98912.28;;;11.42;98.90
12247;BME280;6186;52.022;4.692;2023-03-14T02:02:42;98910.78;;;11.37;99.03
12247;BME280;6186;52.022;4.692;2023-03-14T02:05:09;98907.69;;;11.45;99.36
12247;BME280;6186;52.022;4.692;2023-03-14T02:07:56;98905.06;;;11.45;99.66
12247;BME280;6186;52.022;4.692;2023-03-14T02:10:25;98897.16;;;11.45;99.46
12247;BME280;6186;52.022;4.692;2023-03-14T02:12:53;98897.91;;;11.47;99.72
12247;BME280;6186;52.022;4.692;2023-03-14T02:15:20;98885.59;;;11.48;99.60
12247;BME280;6186;52.022;4.692;2023-03-14T02:17:46;98894.44;;;11.47;99.70
12247;BME280;6186;52.022;4.692;2023-03-14T02:20:34;98890.19;;;11.44;99.76
12247;BME280;6186;52.022;4.692;2023-03-14T02:23:01;98886.81;;;11.42;99.83
12247;BME280;6186;52.022;4.692;2023-03-14T02:25:46;98881.63;;;11.41;99.87
12247;BME280;6186;52.022;4.692;2023-03-14T02:28:14;98882.84;;;11.35;100.00
12247;BME280;6186;52.022;4.692;2023-03-14T02:30:40;98888.88;;;11.37;100.00
12247;BME280;6186;52.022;4.692;2023-03-14T02:33:10;98879.34;;;11.34;100.00
12247;BME280;6186;52.022;4.692;2023-03-14T02:35:51;98886.50;;;11.32;99.82
12247;BME280;6186;52.022;4.692;2023-03-14T02:38:46;98901.53;;;11.30;99.87
12247;BME280;6186;52.022;4.692;2023-03-14T02:41:09;98900.88;;;11.27;100.00
12247;BME280;6186;52.022;4.692;2023-03-14T02:43:35;98884.22;;;11.26;100.00
12247;BME280;6186;52.022;4.692;2023-03-14T02:46:01;98878.41;;;11.21;100.00
12247;BME280;6186;52.022;4.692;2023-03-14T02:48:30;98882.53;;;11.25;100.00
12247;BME280;6186;52.022;4.692;2023-03-14T02:50:59;98872.94;;;11.24;100.00
12247;BME280;6186;52.022;4.692;2023-03-14T02:53:27;98872.28;;;11.21;100.00
12247;BME280;6186;52.022;4.692;2023-03-14T02:55:54;98885.19;;;11.25;100.00
12247;BME280;6186;52.022;4.692;2023-03-14T02:58:20;98870.66;;;11.18;100.00
12247;BME280;6186;52.022;4.692;2023-03-14T03:00:45;98881.88;;;11.22;100.00
12247;BME280;6186;52.022;4.692;2023-03-14T03:03:11;98876.63;;;11.22;100.00
12247;BME280;6186;52.022;4.692;2023-03-14T03:05:37;98875.00;;;11.19;100.00
12247;BME280;6186;52.022;4.692;2023-03-14T03:08:03;98875.19;;;11.16;100.00
12247;BME280;6186;52.022;4.692;2023-03-14T03:10:29;98867.47;;;11.13;100.00
12247;BME280;6186;52.022;4.692;2023-03-14T03:12:55;98862.38;;;11.10;100.00
12247;BME280;6186;52.022;4.692;2023-03-14T03:15:20;98867.06;;;11.05;100.00
12247;BME280;6186;52.022;4.692;2023-03-14T03:17:45;98862.53;;;11.07;100.00
12247;BME280;6186;52.022;4.692;2023-03-14T03:20:11;98865.94;;;11.09;100.00
12247;BME280;6186;52.022;4.692;2023-03-14T03:22:37;98866.88;;;11.08;100.00
12247;BME280;6186;52.022;4.692;2023-03-14T03:25:05;98853.88;;;11.05;100.00
12247;BME280;6186;52.022;4.692;2023-03-14T03:27:32;98855.50;;;11.08;100.00
12247;BME280;6186;52.022;4.692;2023-03-14T03:29:58;98848.47;;;11.08;100.00
12247;BME280;6186;52.022;4.692;2023-03-14T03:32:23;98847.59;;;11.08;100.00
12247;BME280;6186;52.022;4.692;2023-03-14T03:34:48;98838.19;;;11.04;100.00
12247;BME280;6186;52.022;4.692;2023-03-14T03:37:14;98839.03;;;11.04;100.00
12247;BME280;6186;52.022;4.692;2023-03-14T03:39:39;98838.84;;;11.07;100.00
12247;BME280;6186;52.022;4.692;2023-03-14T03:42:05;98841.47;;;11.07;100.00
12247;BME280;6186;52.022;4.692;2023-03-14T03:44:30;98847.50;;;11.09;100.00
12247;BME280;6186;52.022;4.692;2023-03-14T03:46:55;98845.72;;;11.10;100.00
12247;BME280;6186;52.022;4.692;2023-03-14T03:49:21;98843.97;;;11.10;100.00
12247;BME280;6186;52.022;4.692;2023-03-14T03:51:46;98843.97;;;11.10;100.00
12247;BME280;6186;52.022;4.692;2023-03-14T03:54:11;98846.69;;;11.09;100.00
12247;BME280;6186;52.022;4.692;2023-03-14T03:56:37;98849.31;;;11.09;100.00
12247;BME280;6186;52.022;4.692;2023-03-14T03:59:02;98850.13;;;11.09;100.00
12247;BME280;6186;52.022;4.692;2023-03-14T04:01:27;98846.69;;;11.09;100.00
12247;BME280;6186;52.022;4.692;2023-03-14T04:03:53;98850.13;;;11.09;100.00
12247;BME280;6186;52.022;4.692;2023-03-14T04:06:18;98844.41;;;11.03;100.00
12247;BME280;6186;52.022;4.692;2023-03-14T04:08:43;98845.84;;;11.08;100.00
12247;BME280;6186;52.022;4.692;2023-03-14T04:11:09;98845.16;;;11.05;100.00
12247;BME280;6186;52.022;4.692;2023-03-14T04:13:35;98846.59;;;11.10;100.00
12247;BME280;6186;52.022;4.692;2023-03-14T04:16:00;98839.59;;;11.09;100.00
12247;BME280;6186;52.022;4.692;2023-03-14T04:18:26;98841.47;;;11.07;100.00
12247;BME280;6186;52.022;4.692;2023-03-14T04:20:53;98845.72;;;11.10;100.00
12247;BME280;6186;52.022;4.692;2023-03-14T04:23:19;98838.69;;;11.10;100.00
12247;BME280;6186;52.022;4.692;2023-03-14T04:25:45;98837.84;;;11.10;100.00
12247;BME280;6186;52.022;4.692;2023-03-14T04:28:10;98850.13;;;11.09;100.00
12247;BME280;6186;52.022;4.692;2023-03-14T04:30:35;98865.13;;;11.09;100.00
12247;BME280;6186;52.022;4.692;2023-03-14T04:33:00;98864.25;;;11.08;100.00
12247;BME280;6186;52.022;4.692;2023-03-14T04:35:26;98859.16;;;11.05;100.00
12247;BME280;6186;52.022;4.692;2023-03-14T04:37:52;98854.06;;;11.02;100.00
12247;BME280;6186;52.022;4.692;2023-03-14T04:40:17;98844.56;;;11.00;100.00
12247;BME280;6186;52.022;4.692;2023-03-14T04:42:43;98840.41;;;10.96;100.00
12247;BME280;6186;52.022;4.692;2023-03-14T04:45:09;98842.31;;;10.94;100.00
12247;BME280;6186;52.022;4.692;2023-03-14T04:47:34;98838.84;;;10.93;100.00
12247;BME280;6186;52.022;4.692;2023-03-14T04:50:00;98829.56;;;10.86;100.00
12247;BME280;6186;52.022;4.692;2023-03-14T04:52:25;98837.31;;;10.89;100.00
12247;BME280;6186;52.022;4.692;2023-03-14T04:54:51;98842.56;;;10.89;100.00
12247;BME280;6186;52.022;4.692;2023-03-14T04:57:16;98839.09;;;10.89;100.00
12247;BME280;6186;52.022;4.692;2023-03-14T04:59:42;98834.78;;;10.88;100.00
12247;BME280;6186;52.022;4.692;2023-03-14T05:02:07;98827.91;;;10.85;100.00
12247;BME280;6186;52.022;4.692;2023-03-14T05:04:33;98835.03;;;10.83;100.00
12247;BME280;6186;52.022;4.692;2023-03-14T05:06:59;98829.00;;;10.81;100.00
12247;BME280;6186;52.022;4.692;2023-03-14T05:09:24;98830.88;;;10.79;100.00
12247;BME280;6186;52.022;4.692;2023-03-14T05:11:49;98825.81;;;10.76;100.00
12247;BME280;6186;52.022;4.692;2023-03-14T05:14:15;98823.28;;;10.75;100.00
12247;BME280;6186;52.022;4.692;2023-03-14T05:16:40;98827.69;;;10.74;100.00
12247;BME280;6186;52.022;4.692;2023-03-14T05:19:05;98814.63;;;10.73;100.00
12247;BME280;6186;52.022;4.692;2023-03-14T05:21:31;98813.09;;;10.69;100.00
12247;BME280;6186;52.022;4.692;2023-03-14T05:23:56;98811.47;;;10.66;100.00
12247;BME280;6186;52.022;4.692;2023-03-14T05:26:22;98818.34;;;10.69;100.00
12247;BME280;6186;52.022;4.692;2023-03-14T05:28:47;98814.00;;;10.68;100.00
12247;BME280;6186;52.022;4.692;2023-03-14T05:31:13;98808.84;;;10.66;100.00
12247;BME280;6186;52.022;4.692;2023-03-14T05:33:38;98819.28;;;10.68;100.00
12247;BME280;6186;52.022;4.692;2023-03-14T05:36:04;98826.34;;;10.67;100.00
12247;BME280;6186;52.022;4.692;2023-03-14T05:38:29;98834.25;;;10.67;100.00
12247;BME280;6186;52.022;4.692;2023-03-14T05:40:54;98840.41;;;10.66;100.00
12247;BME280;6186;52.022;4.692;2023-03-14T05:43:20;98870.22;;;10.67;100.00
12247;BME280;6186;52.022;4.692;2023-03-14T05:45:45;98885.06;;;10.68;100.00
12247;BME280;6186;52.022;4.692;2023-03-14T05:48:10;98902.66;;;10.67;100.00
12247;BME280;6186;52.022;4.692;2023-03-14T05:50:36;98903.13;;;10.58;100.00
12247;BME280;6186;52.022;4.692;2023-03-14T05:53:01;98911.81;;;10.45;100.00
12247;BME280;6186;52.022;4.692;2023-03-14T05:55:27;98905.69;;;10.28;100.00
12247;BME280;6186;52.022;4.692;2023-03-14T05:57:53;98922.75;;;10.21;100.00
12247;BME280;6186;52.022;4.692;2023-03-14T06:00:19;98913.84;;;10.07;100.00
12247;BME280;6186;52.022;4.692;2023-03-14T06:02:44;98938.75;;;10.00;100.00
12247;BME280;6186;52.022;4.692;2023-03-14T06:05:09;98935.00;;;9.88;100.00
12247;BME280;6186;52.022;4.692;2023-03-14T06:07:35;98950.09;;;9.85;100.00
12247;BME280;6186;52.022;4.692;2023-03-14T06:10:00;98951.47;;;9.75;100.00
12247;BME280;6186;52.022;4.692;2023-03-14T06:12:25;98964.56;;;9.76;100.00
12247;BME280;6186;52.022;4.692;2023-03-14T06:14:51;98966.34;;;9.76;100.00
12247;BME280;6186;52.022;4.692;2023-03-14T06:17:16;98969.88;;;9.75;100.00
12247;BME280;6186;52.022;4.692;2023-03-14T06:19:42;98976.84;;;9.76;100.00
12247;BME280;6186;52.022;4.692;2023-03-14T06:22:07;98977.91;;;9.72;100.00
12247;BME280;6186;52.022;4.692;2023-03-14T06:24:32;98980.78;;;9.67;100.00
12247;BME280;6186;52.022;4.692;2023-03-14T06:26:58;98999.25;;;9.66;100.00
12247;BME280;6186;52.022;4.692;2023-03-14T06:29:23;98996.63;;;9.66;100.00
12247;BME280;6186;52.022;4.692;2023-03-14T06:31:48;98994.94;;;9.65;100.00
12247;BME280;6186;52.022;4.692;2023-03-14T06:34:14;99015.94;;;9.65;100.00
12247;BME280;6186;52.022;4.692;2023-03-14T06:36:39;99013.53;;;9.60;100.00
12247;BME280;6186;52.022;4.692;2023-03-14T06:39:04;99025.91;;;9.58;100.00
12247;BME280;6186;52.022;4.692;2023-03-14T06:41:30;99032.22;;;9.54;100.00
12247;BME280;6186;52.022;4.692;2023-03-14T06:43:55;99041.19;;;9.50;100.00
12247;BME280;6186;52.022;4.692;2023-03-14T06:46:20;99043.81;;;9.50;100.00
12247;BME280;6186;52.022;4.692;2023-03-14T06:48:46;99052.63;;;9.49;100.00
12247;BME280;6186;52.022;4.692;2023-03-14T06:51:11;99064.13;;;9.46;100.00
12247;BME280;6186;52.022;4.692;2023-03-14T06:53:36;99063.34;;;9.44;100.00
12247;BME280;6186;52.022;4.692;2023-03-14T06:56:02;99087.81;;;9.45;100.00
12247;BME280;6186;52.022;4.692;2023-03-14T06:58:27;99097.63;;;9.41;100.00
12247;BME280;6186;52.022;4.692;2023-03-14T07:00:53;99098.69;;;9.37;100.00
12247;BME280;6186;52.022;4.692;2023-03-14T07:03:20;99110.16;;;9.36;100.00
12247;BME280;6186;52.022;4.692;2023-03-14T07:05:45;99115.41;;;9.36;100.00
12247;BME280;6186;52.022;4.692;2023-03-14T07:08:10;99118.84;;;9.37;100.00
12247;BME280;6186;52.022;4.692;2023-03-14T07:10:36;99131.06;;;9.38;100.00
12247;BME280;6186;52.022;4.692;2023-03-14T07:13:01;99137.19;;;9.38;100.00
12247;BME280;6186;52.022;4.692;2023-03-14T07:15:27;99145.88;;;9.39;100.00
12247;BME280;6186;52.022;4.692;2023-03-14T07:17:52;99157.41;;;9.36;100.00
12247;BME280;6186;52.022;4.692;2023-03-14T07:20:17;99165.91;;;9.41;100.00
12247;BME280;6186;52.022;4.692;2023-03-14T07:22:43;99166.97;;;9.37;100.00
12247;BME280;6186;52.022;4.692;2023-03-14T07:25:09;99165.31;;;9.35;100.00
12247;BME280;6186;52.022;4.692;2023-03-14T07:27:37;99183.78;;;9.33;100.00
12247;BME280;6186;52.022;4.692;2023-03-14T07:30:03;99206.34;;;9.37;100.00
12247;BME280;6186;52.022;4.692;2023-03-14T07:32:28;99199.69;;;9.30;100.00
12247;BME280;6186;52.022;4.692;2023-03-14T07:34:53;99210.91;;;9.34;100.00
12247;BME280;6186;52.022;4.692;2023-03-14T07:37:19;99217.09;;;9.33;100.00
12247;BME280;6186;52.022;4.692;2023-03-14T07:39:44;99227.50;;;9.34;100.00
12247;BME280;6186;52.022;4.692;2023-03-14T07:42:09;99233.53;;;9.36;100.00
12247;BME280;6186;52.022;4.692;2023-03-14T07:44:36;99248.28;;;9.39;100.00
12247;BME280;6186;52.022;4.692;2023-03-14T07:47:01;99265.69;;;9.41;100.00
12247;BME280;6186;52.022;4.692;2023-03-14T07:49:27;99281.63;;;9.37;100.00
12247;BME280;6186;52.022;4.692;2023-03-14T07:51:52;99299.03;;;9.39;100.00
12247;BME280;6186;52.022;4.692;2023-03-14T07:54:17;99311.53;;;9.34;100.00
12247;BME280;6186;52.022;4.692;2023-03-14T07:56:43;99316.31;;;9.25;100.00
12247;BME280;6186;52.022;4.692;2023-03-14T07:59:08;99339.69;;;9.11;100.00
12247;BME280;6186;52.022;4.692;2023-03-14T08:01:34;99334.25;;;8.95;100.00
12247;BME280;6186;52.022;4.692;2023-03-14T08:03:59;99348.53;;;8.88;100.00
12247;BME280;6186;52.022;4.692;2023-03-14T08:06:25;99357.44;;;8.84;100.00
12247;BME280;6186;52.022;4.692;2023-03-14T08:08:50;99367.44;;;8.76;100.00
12247;BME280;6186;52.022;4.692;2023-03-14T08:11:16;99387.63;;;8.74;100.00
12247;BME280;6186;52.022;4.692;2023-03-14T08:13:41;99397.63;;;8.65;100.00
12247;BME280;6186;52.022;4.692;2023-03-14T08:16:07;99396.22;;;8.56;100.00
12247;BME280;6186;52.022;4.692;2023-03-14T08:18:33;99411.28;;;8.51;100.00
12247;BME280;6186;52.022;4.692;2023-03-14T08:20:58;99412.19;;;8.50;100.00
12247;BME280;6186;52.022;4.692;2023-03-14T08:23:24;99433.22;;;8.48;100.00
12247;BME280;6186;52.022;4.692;2023-03-14T08:25:50;99456.72;;;8.51;100.00
12247;BME280;6186;52.022;4.692;2023-03-14T08:28:16;99460.41;;;8.46;100.00
12247;BME280;6186;52.022;4.692;2023-03-14T08:30:41;99475.31;;;8.45;100.00
12247;BME280;6186;52.022;4.692;2023-03-14T08:33:07;99487.50;;;8.46;100.00
12247;BME280;6186;52.022;4.692;2023-03-14T08:35:32;99483.13;;;8.47;100.00
12247;BME280;6186;52.022;4.692;2023-03-14T08:37:57;99506.19;;;8.61;100.00
12247;BME280;6186;52.022;4.692;2023-03-14T08:40:23;99524.84;;;8.53;100.00
12247;BME280;6186;52.022;4.692;2023-03-14T08:42:48;99530.38;;;8.45;100.00
12247;BME280;6186;52.022;4.692;2023-03-14T08:45:15;99546.19;;;8.44;100.00
12247;BME280;6186;52.022;4.692;2023-03-14T08:47:42;99553.13;;;8.45;100.00
12247;BME280;6186;52.022;4.692;2023-03-14T08:50:08;99561.03;;;8.43;100.00
12247;BME280;6186;52.022;4.692;2023-03-14T08:52:34;99587.47;;;8.37;100.00
12247;BME280;6186;52.022;4.692;2023-03-14T08:54:59;99591.75;;;8.40;100.00
12247;BME280;6186;52.022;4.692;2023-03-14T08:57:25;99588.88;;;8.47;100.00
12247;BME280;6186;52.022;4.692;2023-03-14T08:59:54;99587.44;;;8.62;100.00
12247;BME280;6186;52.022;4.692;2023-03-14T09:02:23;99612.06;;;8.81;100.00
12247;BME280;6186;52.022;4.692;2023-03-14T09:04:53;99603.28;;;8.82;100.00
12247;BME280;6186;52.022;4.692;2023-03-14T09:07:19;99619.06;;;8.81;100.00
12247;BME280;6186;52.022;4.692;2023-03-14T09:09:45;99623.59;;;8.77;100.00
12247;BME280;6186;52.022;4.692;2023-03-14T09:12:11;99647.94;;;8.81;100.00
12247;BME280;6186;52.022;4.692;2023-03-14T09:14:37;99652.72;;;8.93;100.00
12247;BME280;6186;52.022;4.692;2023-03-14T09:17:03;99659.91;;;9.11;100.00
12247;BME280;6186;52.022;4.692;2023-03-14T09:19:28;99666.69;;;9.16;100.00
12247;BME280;6186;52.022;4.692;2023-03-14T09:21:54;99680.59;;;9.18;100.00
12247;BME280;6186;52.022;4.692;2023-03-14T09:24:19;99687.63;;;9.18;100.00
12247;BME280;6186;52.022;4.692;2023-03-14T09:26:44;99703.72;;;9.09;100.00
12247;BME280;6186;52.022;4.692;2023-03-14T09:29:10;99720.75;;;8.99;100.00
12247;BME280;6186;52.022;4.692;2023-03-14T09:31:35;99722.66;;;8.94;100.00
12247;BME280;6186;52.022;4.692;2023-03-14T09:34:01;99736.78;;;8.90;100.00
12247;BME280;6186;52.022;4.692;2023-03-14T09:36:26;99750.19;;;8.82;100.00
12247;BME280;6186;52.022;4.692;2023-03-14T09:38:51;99761.44;;;8.86;100.00
12247;BME280;6186;52.022;4.692;2023-03-14T09:41:24;99768.47;;;8.85;100.00
12247;BME280;6186;52.022;4.692;2023-03-14T09:46:35;99796.78;;;8.76;100.00
12247;BME280;6186;52.022;4.692;2023-03-14T09:49:02;99814.69;;;8.63;100.00
12247;BME280;6186;52.022;4.692;2023-03-14T09:51:28;99822.94;;;8.52;100.00
12247;BME280;6186;52.022;4.692;2023-03-14T09:53:54;99827.25;;;8.27;100.00
12247;BME280;6186;52.022;4.692;2023-03-14T09:56:23;99841.16;;;8.02;100.00
12247;BME280;6186;52.022;4.692;2023-03-14T09:59:02;99844.28;;;7.85;100.00
12247;BME280;6186;52.022;4.692;2023-03-14T10:01:31;99844.28;;;7.85;100.00
12247;BME280;6186;52.022;4.692;2023-03-14T10:04:05;99842.31;;;7.92;100.00
12247;BME280;6186;52.022;4.692;2023-03-14T10:06:32;99856.69;;;8.08;100.00
12247;BME280;6186;52.022;4.692;2023-03-14T10:08:57;99870.81;;;8.31;100.00
12247;BME280;6186;52.022;4.692;2023-03-14T10:11:24;99878.94;;;8.51;100.00
12247;BME280;6186;52.022;4.692;2023-03-14T10:14:09;99887.13;;;8.67;100.00
12247;BME280;6186;52.022;4.692;2023-03-14T10:16:42;99896.22;;;8.83;100.00
12247;BME280;6186;52.022;4.692;2023-03-14T10:19:14;99896.28;;;8.82;100.00
12247;BME280;6186;52.022;4.692;2023-03-14T10:21:42;99913.47;;;8.90;100.00
12247;BME280;6186;52.022;4.692;2023-03-14T10:24:22;99917.84;;;8.91;100.00
12247;BME280;6186;52.022;4.692;2023-03-14T10:27:17;99931.19;;;8.84;100.00
12247;BME280;6186;52.022;4.692;2023-03-14T10:30:30;99946.41;;;8.73;100.00
12247;BME280;6186;52.022;4.692;2023-03-14T10:32:55;99970.31;;;8.64;100.00
12247;BME280;6186;52.022;4.692;2023-03-14T10:35:22;99985.16;;;8.65;100.00
12247;BME280;6186;52.022;4.692;2023-03-14T10:37:51;99963.38;;;8.63;100.00
12247;BME280;6186;52.022;4.692;2023-03-14T10:40:18;99976.56;;;8.60;100.00
12247;BME280;6186;52.022;4.692;2023-03-14T10:42:45;100007.84;;;8.66;100.00
12247;BME280;6186;52.022;4.692;2023-03-14T10:45:35;100001.66;;;8.68;100.00
12247;BME280;6186;52.022;4.692;2023-03-14T10:48:24;100035.00;;;8.65;100.00
12247;BME280;6186;52.022;4.692;2023-03-14T10:50:55;100031.81;;;8.53;100.00
12247;BME280;6186;52.022;4.692;2023-03-14T10:53:21;100034.66;;;8.47;100.00
12247;BME280;6186;52.022;4.692;2023-03-14T10:55:47;100047.75;;;8.47;100.00
12247;BME280;6186;52.022;4.692;2023-03-14T10:58:22;100058.03;;;8.55;100.00
12247;BME280;6186;52.022;4.692;2023-03-14T11:00:53;100062.00;;;8.68;100.00
12247;BME280;6186;52.022;4.692;2023-03-14T11:03:23;100073.84;;;9.09;100.00
12247;BME280;6186;52.022;4.692;2023-03-14T11:05:57;100088.22;;;9.77;100.00
12247;BME280;6186;52.022;4.692;2023-03-14T11:11:10;100094.66;;;11.12;100.00
12247;BME280;6186;52.022;4.692;2023-03-14T11:13:43;100098.63;;;11.44;100.00
12247;BME280;6186;52.022;4.692;2023-03-14T11:35:14;100167.75;;;15.83;100.00
12247;BME280;6186;52.022;4.692;2023-03-14T11:37:47;100169.47;;;16.29;100.00
12247;BME280;6186;52.022;4.692;2023-03-14T11:40:26;100183.44;;;16.90;100.00
12247;BME280;6186;52.022;4.692;2023-03-14T11:42:59;100178.16;;;17.45;100.00
12247;BME280;6186;52.022;4.692;2023-03-14T11:45:30;100204.38;;;18.06;100.00
12247;BME280;6186;52.022;4.692;2023-03-14T11:50:33;100204.22;;;18.48;100.00
12247;BME280;6186;52.022;4.692;2023-03-14T11:53:09;100227.78;;;18.54;100.00
12247;BME280;6186;52.022;4.692;2023-03-14T11:55:40;100220.72;;;18.53;100.00
12247;BME280;6186;52.022;4.692;2023-03-14T11:58:20;100235.44;;;18.20;100.00
12247;BME280;6186;52.022;4.692;2023-03-14T12:00:50;100240.53;;;17.96;100.00
12247;BME280;6186;52.022;4.692;2023-03-14T12:03:36;100240.88;;;18.18;100.00
12247;BME280;6186;52.022;4.692;2023-03-14T12:06:16;100263.31;;;17.88;100.00
12247;BME280;6186;52.022;4.692;2023-03-14T12:11:20;100252.38;;;17.08;100.00
12247;BME280;6186;52.022;4.692;2023-03-14T12:13:51;100261.53;;;16.74;100.00
12247;BME280;6186;52.022;4.692;2023-03-14T12:16:26;100262.19;;;16.63;100.00
12247;BME280;6186;52.022;4.692;2023-03-14T12:18:52;100268.31;;;16.50;100.00
12247;BME280;6186;52.022;4.692;2023-03-14T12:21:19;100272.28;;;16.27;100.00
12247;BME280;6186;52.022;4.692;2023-03-14T12:23:48;100281.63;;;15.87;100.00
12247;BME280;6186;52.022;4.692;2023-03-14T12:26:25;100291.69;;;15.50;100.00
12247;BME280;6186;52.022;4.692;2023-03-14T12:29:11;100306.84;;;15.63;100.00
12247;BME280;6186;52.022;4.692;2023-03-14T12:31:41;100293.34;;;15.83;100.00
12247;BME280;6186;52.022;4.692;2023-03-14T12:37:40;100310.59;;;15.27;100.00
12247;BME280;6186;52.022;4.692;2023-03-14T12:42:49;100313.47;;;16.79;100.00
12247;BME280;6186;52.022;4.692;2023-03-14T12:47:55;100318.50;;;17.14;100.00
12247;BME280;6186;52.022;4.692;2023-03-14T12:50:26;100326.22;;;16.43;100.00
12247;BME280;6186;52.022;4.692;2023-03-14T12:53:07;100341.91;;;15.85;100.00
12247;BME280;6186;52.022;4.692;2023-03-14T12:55:49;100346.53;;;16.13;100.00
12247;BME280;6186;52.022;4.692;2023-03-14T12:58:31;100357.34;;;16.86;100.00
12247;BME280;6186;52.022;4.692;2023-03-14T13:01:03;100346.53;;;17.63;100.00
12247;BME280;6186;52.022;4.692;2023-03-14T13:03:43;100369.34;;;18.36;100.00
12247;BME280;6186;52.022;4.692;2023-03-14T13:06:10;100374.06;;;18.86;100.00
12247;BME280;6186;52.022;4.692;2023-03-14T13:08:44;100374.03;;;19.25;100.00
12247;BME280;6186;52.022;4.692;2023-03-14T13:11:19;100385.00;;;19.47;100.00
12247;BME280;6186;52.022;4.692;2023-03-14T13:13:48;100396.53;;;19.35;100.00
12247;BME280;6186;52.022;4.692;2023-03-14T13:16:17;100399.06;;;19.36;100.00
12247;BME280;6186;52.022;4.692;2023-03-14T13:19:06;100418.88;;;19.20;100.00
12247;BME280;6186;52.022;4.692;2023-03-14T13:21:36;100414.66;;;18.64;100.00
12247;BME280;6186;52.022;4.692;2023-03-14T13:24:25;100420.84;;;18.36;98.37
12247;BME280;6186;52.022;4.692;2023-03-14T13:26:55;100428.69;;;17.97;95.37
12247;BME280;6186;52.022;4.692;2023-03-14T13:29:26;100447.41;;;17.22;91.08
12247;BME280;6186;52.022;4.692;2023-03-14T13:31:54;100457.16;;;16.45;87.77
12247;BME280;6186;52.022;4.692;2023-03-14T13:34:33;100463.69;;;16.07;89.48
12247;BME280;6186;52.022;4.692;2023-03-14T13:36:59;100473.97;;;15.80;88.82
12247;BME280;6186;52.022;4.692;2023-03-14T13:39:27;100478.81;;;15.38;87.67
12247;BME280;6186;52.022;4.692;2023-03-14T13:41:57;100482.88;;;14.92;86.40
12247;BME280;6186;52.022;4.692;2023-03-14T13:46:58;100487.03;;;14.44;86.07
12247;BME280;6186;52.022;4.692;2023-03-14T13:49:25;100492.97;;;13.90;82.71
12247;BME280;6186;52.022;4.692;2023-03-14T13:51:51;100500.50;;;13.39;81.71
12247;BME280;6186;52.022;4.692;2023-03-14T13:54:18;100504.09;;;12.94;80.61